createdAt,value
2023-03-06T00:00:48.564Z,28.67
2023-03-06T00:01:50.779Z,32.08
2023-03-06T00:02:53.274Z,33.90
2023-03-06T00:03:55.380Z,33.80
2023-03-06T00:04:57.308Z,34.97
2023-03-06T00:05:59.567Z,30.73
2023-03-06T00:07:01.161Z,31.25
2023-03-06T00:08:02.850Z,33.80
2023-03-06T00:09:04.423Z,32.80
2023-03-06T00:10:06.549Z,33.05
2023-03-06T00:11:08.185Z,31.65
2023-03-06T00:12:09.935Z,29.27
2023-03-06T00:13:14.165Z,31.15
2023-03-06T00:14:16.606Z,28.67
2023-03-06T00:15:18.769Z,30.10
2023-03-06T00:16:20.422Z,33.63
2023-03-06T00:17:22.131Z,31.08
2023-03-06T00:18:23.768Z,31.33
2023-03-06T00:19:25.478Z,29.00
2023-03-06T00:20:27.313Z,31.13
2023-03-06T00:21:28.990Z,30.20
2023-03-06T00:22:30.611Z,30.73
2023-03-06T00:23:32.231Z,29.65
2023-03-06T00:24:33.830Z,32.05
2023-03-06T00:25:38.750Z,30.33
2023-03-06T00:26:41.379Z,31.05
2023-03-06T00:27:43.697Z,30.90
2023-03-06T00:28:45.474Z,27.95
2023-03-06T00:29:49.839Z,28.08
2023-03-06T00:30:51.503Z,29.33
2023-03-06T00:31:53.058Z,27.98
2023-03-06T00:32:54.667Z,29.02
2023-03-06T00:33:56.274Z,28.67
2023-03-06T00:34:57.969Z,27.85
2023-03-06T00:35:59.546Z,30.80
2023-03-06T00:37:01.192Z,27.58
2023-03-06T00:38:02.809Z,27.92
2023-03-06T00:39:05.090Z,27.60
2023-03-06T00:40:08.369Z,26.58
2023-03-06T00:41:11.528Z,29.23
2023-03-06T00:42:13.380Z,28.23
2023-03-06T00:43:15.076Z,27.00
2023-03-06T00:44:16.780Z,26.45
2023-03-06T00:45:18.452Z,25.40
2023-03-06T00:46:20.156Z,27.70
2023-03-06T00:47:21.878Z,27.17
2023-03-06T00:48:23.506Z,29.05
2023-03-06T00:49:25.227Z,27.75
2023-03-06T00:50:26.884Z,23.80
2023-03-06T00:51:28.589Z,26.17
2023-03-06T00:52:30.301Z,24.60
2023-03-06T00:53:31.972Z,24.45
2023-03-06T00:54:33.579Z,22.27
2023-03-06T00:55:35.235Z,25.88
2023-03-06T00:56:36.821Z,23.63
2023-03-06T00:57:38.371Z,26.02
2023-03-06T00:58:39.929Z,25.80
2023-03-06T00:59:41.701Z,26.75
2023-03-06T01:00:43.430Z,26.35
2023-03-06T01:01:45.189Z,26.42
2023-03-06T01:02:46.763Z,25.73
2023-03-06T01:03:48.362Z,24.23
2023-03-06T01:04:50.074Z,26.00
2023-03-06T01:05:51.705Z,24.92
2023-03-06T01:06:53.384Z,26.63
2023-03-06T01:07:55.010Z,24.73
2023-03-06T01:08:56.672Z,25.58
2023-03-06T01:09:58.237Z,21.10
2023-03-06T01:10:59.855Z,23.20
2023-03-06T01:12:01.490Z,23.33
2023-03-06T01:13:03.096Z,20.63
2023-03-06T01:14:04.951Z,22.48
2023-03-06T01:15:07.572Z,23.35
2023-03-06T01:16:12.563Z,24.83
2023-03-06T01:17:14.345Z,25.48
2023-03-06T01:18:16.198Z,22.58
2023-03-06T01:19:18.296Z,23.80
2023-03-06T01:20:20.978Z,23.73
2023-03-06T01:21:22.586Z,25.40
2023-03-06T01:22:24.203Z,25.15
2023-03-06T01:23:25.792Z,26.20
2023-03-06T01:24:28.611Z,24.30
2023-03-06T01:25:30.229Z,25.15
2023-03-06T01:26:31.882Z,24.63
2023-03-06T01:27:33.584Z,26.60
2023-03-06T01:28:37.598Z,27.05
2023-03-06T01:29:39.255Z,26.27
2023-03-06T01:30:40.952Z,26.05
2023-03-06T01:31:42.796Z,24.38
2023-03-06T01:32:44.760Z,28.15
2023-03-06T01:33:46.668Z,24.45
2023-03-06T01:34:48.268Z,27.58
2023-03-06T01:35:49.873Z,26.20
2023-03-06T01:36:51.468Z,23.95
2023-03-06T01:37:53.151Z,28.83
2023-03-06T01:38:54.720Z,28.20
2023-03-06T01:39:56.526Z,29.42
2023-03-06T01:40:58.175Z,27.80
2023-03-06T01:41:59.789Z,28.95
2023-03-06T01:43:29.438Z,28.77
2023-03-06T01:44:31.344Z,26.73
2023-03-06T01:45:36.107Z,25.83
2023-03-06T01:46:44.072Z,27.95
2023-03-06T01:47:45.668Z,27.67
2023-03-06T01:48:48.569Z,27.50
2023-03-06T01:50:53.133Z,23.10
2023-03-06T01:52:00.196Z,25.42
2023-03-06T01:53:01.967Z,25.33
2023-03-06T01:54:09.241Z,24.20
2023-03-06T01:55:22.631Z,24.73
2023-03-06T01:56:25.120Z,24.33
2023-03-06T01:57:32.708Z,23.92
2023-03-06T01:58:34.559Z,22.70
2023-03-06T01:59:39.112Z,24.70
2023-03-06T02:00:40.802Z,25.17
2023-03-06T02:01:44.224Z,24.45
2023-03-06T02:02:51.164Z,25.77
2023-03-06T02:03:53.279Z,23.40
2023-03-06T02:04:54.982Z,24.88
2023-03-06T02:05:56.925Z,25.77
2023-03-06T02:07:00.315Z,25.80
2023-03-06T02:08:03.970Z,23.05
2023-03-06T02:09:06.674Z,25.33
2023-03-06T02:10:09.877Z,21.90
2023-03-06T02:11:13.662Z,22.48
2023-03-06T02:12:19.198Z,22.63
2023-03-06T02:13:20.841Z,24.88
2023-03-06T02:14:22.720Z,24.63
2023-03-06T02:15:26.863Z,23.85
2023-03-06T02:16:31.787Z,24.20
2023-03-06T02:17:34.942Z,24.42
2023-03-06T02:18:38.075Z,21.98
2023-03-06T02:19:58.021Z,22.15
2023-03-06T02:21:04.156Z,23.52
2023-03-06T02:22:06.070Z,23.80
2023-03-06T02:23:31.795Z,23.08
2023-03-06T02:24:40.882Z,21.65
2023-03-06T02:26:46.984Z,21.65
2023-03-06T02:27:49.255Z,22.75
2023-03-06T02:28:50.879Z,21.30
2023-03-06T02:29:52.505Z,21.35
2023-03-06T02:30:56.774Z,21.13
2023-03-06T02:31:58.390Z,21.10
2023-03-06T02:33:00.084Z,23.88
2023-03-06T02:34:01.633Z,23.00
2023-03-06T02:35:04.087Z,21.60
2023-03-06T02:36:07.651Z,23.27
2023-03-06T02:37:10.629Z,21.83
2023-03-06T02:38:17.731Z,22.50
2023-03-06T02:39:24.008Z,22.17
2023-03-06T02:40:26.389Z,22.27
2023-03-06T02:41:28.377Z,21.20
2023-03-06T02:42:30.150Z,22.55
2023-03-06T02:43:34.353Z,21.40
2023-03-06T02:44:36.900Z,21.05
2023-03-06T02:45:45.273Z,21.33
2023-03-06T02:46:46.924Z,21.67
2023-03-06T02:47:48.589Z,22.63
2023-03-06T02:48:50.194Z,18.95
2023-03-06T02:49:51.920Z,22.67
2023-03-06T02:50:53.502Z,21.70
2023-03-06T02:51:55.077Z,22.08
2023-03-06T02:52:56.734Z,19.13
2023-03-06T02:53:58.395Z,20.60
2023-03-06T02:55:00.097Z,23.00
2023-03-06T02:56:01.894Z,22.88
2023-03-06T02:57:03.647Z,20.33
2023-03-06T02:58:05.395Z,20.73
2023-03-06T02:59:07.032Z,21.50
2023-03-06T03:00:10.164Z,19.65
2023-03-06T03:01:11.957Z,21.00
2023-03-06T03:02:13.646Z,20.13
2023-03-06T03:03:16.038Z,21.10
2023-03-06T03:04:17.681Z,20.48
2023-03-06T03:05:19.334Z,21.25
2023-03-06T03:06:20.899Z,20.38
2023-03-06T03:07:22.468Z,19.58
2023-03-06T03:08:24.011Z,21.50
2023-03-06T03:09:25.592Z,23.70
2023-03-06T03:10:27.390Z,21.70
2023-03-06T03:11:28.958Z,21.33
2023-03-06T03:12:30.595Z,21.77
2023-03-06T03:13:33.009Z,21.20
2023-03-06T03:14:34.759Z,21.83
2023-03-06T03:15:36.530Z,21.75
2023-03-06T03:16:39.186Z,22.55
2023-03-06T03:17:41.625Z,22.27
2023-03-06T03:18:44.697Z,22.83
2023-03-06T03:19:46.375Z,23.58
2023-03-06T03:20:48.035Z,23.75
2023-03-06T03:21:50.160Z,21.77
2023-03-06T03:22:55.068Z,24.80
2023-03-06T03:23:56.980Z,22.50
2023-03-06T03:24:58.662Z,23.80
2023-03-06T03:26:14.721Z,22.45
2023-03-06T03:27:16.326Z,25.17
2023-03-06T03:28:18.944Z,22.95
2023-03-06T03:29:20.770Z,23.23
2023-03-06T03:30:22.564Z,24.98
2023-03-06T03:31:24.165Z,25.30
2023-03-06T03:32:27.150Z,24.67
2023-03-06T03:33:28.739Z,21.40
2023-03-06T03:34:30.539Z,25.70
2023-03-06T03:35:32.212Z,22.17
2023-03-06T03:36:33.991Z,23.08
2023-03-06T03:37:36.788Z,22.30
2023-03-06T03:38:38.392Z,22.92
2023-03-06T03:39:39.972Z,26.88
2023-03-06T03:40:41.566Z,24.23
2023-03-06T03:41:43.300Z,23.17
2023-03-06T03:42:45.001Z,23.42
2023-03-06T03:43:46.608Z,22.13
2023-03-06T03:44:48.277Z,22.33
2023-03-06T03:45:49.945Z,22.58
2023-03-06T03:46:51.701Z,26.60
2023-03-06T03:47:53.450Z,25.73
2023-03-06T03:48:55.171Z,24.85
2023-03-06T03:49:56.795Z,23.73
2023-03-06T03:51:06.658Z,25.73
2023-03-06T03:52:08.344Z,24.60
2023-03-06T03:53:10.180Z,22.60
2023-03-06T03:54:11.835Z,24.40
2023-03-06T03:55:13.481Z,24.27
2023-03-06T03:56:15.166Z,23.63
2023-03-06T03:57:16.929Z,23.85
2023-03-06T03:58:18.601Z,23.58
2023-03-06T03:59:21.111Z,22.10
2023-03-06T04:00:22.905Z,24.55
2023-03-06T04:01:25.173Z,25.60
2023-03-06T04:02:26.894Z,25.48
2023-03-06T04:03:29.101Z,25.88
2023-03-06T04:04:30.944Z,26.05
2023-03-06T04:05:34.036Z,24.40
2023-03-06T04:06:35.635Z,24.52
2023-03-06T04:07:37.674Z,24.17
2023-03-06T04:08:39.407Z,21.60
2023-03-06T04:09:41.488Z,25.88
2023-03-06T04:10:43.218Z,24.33
2023-03-06T04:11:44.888Z,25.77
2023-03-06T04:12:46.599Z,25.45
2023-03-06T04:13:48.367Z,27.05
2023-03-06T04:14:50.118Z,26.55
2023-03-06T04:15:53.869Z,24.67
2023-03-06T04:16:55.542Z,25.42
2023-03-06T04:17:57.278Z,24.80
2023-03-06T04:18:58.928Z,23.35
2023-03-06T04:20:04.983Z,25.60
2023-03-06T04:21:06.881Z,24.77
2023-03-06T04:22:08.545Z,26.40
2023-03-06T04:23:10.439Z,25.92
2023-03-06T04:24:12.200Z,24.52
2023-03-06T04:25:13.966Z,23.45
2023-03-06T04:26:15.703Z,25.95
2023-03-06T04:27:17.385Z,25.85
2023-03-06T04:28:19.332Z,23.65
2023-03-06T04:29:21.083Z,24.95
2023-03-06T04:30:22.789Z,26.10
2023-03-06T04:31:24.575Z,25.52
2023-03-06T04:32:26.381Z,24.77
2023-03-06T04:33:28.209Z,24.83
2023-03-06T04:34:29.811Z,26.00
2023-03-06T04:35:31.692Z,25.98
2023-03-06T04:36:35.052Z,25.42
2023-03-06T04:37:36.674Z,24.63
2023-03-06T04:38:38.270Z,23.40
2023-03-06T04:39:39.838Z,26.25
2023-03-06T04:40:44.557Z,25.80
2023-03-06T04:41:46.608Z,26.42
2023-03-06T04:42:49.254Z,27.00
2023-03-06T04:43:51.213Z,26.10
2023-03-06T04:44:52.886Z,25.85
2023-03-06T04:45:54.532Z,24.75
2023-03-06T04:46:56.174Z,24.30
2023-03-06T04:47:57.768Z,26.45
2023-03-06T04:48:59.650Z,26.23
2023-03-06T04:50:01.558Z,26.77
2023-03-06T04:51:03.238Z,26.13
2023-03-06T04:52:05.296Z,26.45
2023-03-06T04:53:06.931Z,24.98
2023-03-06T04:54:08.603Z,25.02
2023-03-06T04:55:13.666Z,25.73
2023-03-06T04:56:15.297Z,24.10
2023-03-06T04:57:16.973Z,24.15
2023-03-06T04:58:18.624Z,24.73
2023-03-06T04:59:20.243Z,25.00
2023-03-06T05:00:24.479Z,25.17
2023-03-06T05:01:26.199Z,26.35
2023-03-06T05:02:27.843Z,24.98
2023-03-06T05:03:29.601Z,23.15
2023-03-06T05:04:31.289Z,25.08
2023-03-06T05:05:32.861Z,23.98
2023-03-06T05:06:34.535Z,24.25
2023-03-06T05:07:36.502Z,24.20
2023-03-06T05:08:38.105Z,24.52
2023-03-06T05:09:39.637Z,22.92
2023-03-06T05:10:42.714Z,21.52
2023-03-06T05:11:44.307Z,23.42
2023-03-06T05:12:46.035Z,22.65
2023-03-06T05:13:47.846Z,23.73
2023-03-06T05:14:49.534Z,23.13
2023-03-06T05:15:51.246Z,23.70
2023-03-06T05:16:52.933Z,21.27
2023-03-06T05:17:55.454Z,22.77
2023-03-06T05:18:57.011Z,20.70
2023-03-06T05:19:58.706Z,21.77
2023-03-06T05:21:01.181Z,22.30
2023-03-06T05:22:02.780Z,21.98
2023-03-06T05:23:04.469Z,21.60
2023-03-06T05:24:06.241Z,20.95
2023-03-06T05:25:08.634Z,21.20
2023-03-06T05:26:12.140Z,21.30
2023-03-06T05:27:16.486Z,21.00
2023-03-06T05:28:18.419Z,19.20
2023-03-06T05:29:20.242Z,21.42
2023-03-06T05:30:23.335Z,20.00
2023-03-06T05:31:25.007Z,19.25
2023-03-06T05:32:26.788Z,17.35
2023-03-06T05:33:28.428Z,18.63
2023-03-06T05:34:30.054Z,20.55
2023-03-06T05:35:31.916Z,17.45
2023-03-06T05:36:33.531Z,18.67
2023-03-06T05:37:35.227Z,20.75
2023-03-06T05:38:36.948Z,18.30
2023-03-06T05:39:38.564Z,19.05
2023-03-06T05:40:44.068Z,18.15
2023-03-06T05:41:45.665Z,19.45
2023-03-06T05:42:47.284Z,19.27
2023-03-06T05:43:48.980Z,18.08
2023-03-06T05:44:50.755Z,18.65
2023-03-06T05:46:00.363Z,17.38
2023-03-06T05:47:02.490Z,19.38
2023-03-06T05:48:04.694Z,19.20
2023-03-06T05:49:06.318Z,17.73
2023-03-06T05:50:10.521Z,16.77
2023-03-06T05:51:12.246Z,17.98
2023-03-06T05:52:15.159Z,18.38
2023-03-06T05:54:18.296Z,16.45
2023-03-06T05:55:21.801Z,20.20
2023-03-06T05:56:23.656Z,18.58
2023-03-06T05:57:25.275Z,20.70
2023-03-06T05:58:27.895Z,18.70
2023-03-06T05:59:29.513Z,18.25
2023-03-06T06:00:31.081Z,18.38
2023-03-06T06:01:32.691Z,17.20
2023-03-06T06:02:34.400Z,20.58
2023-03-06T06:03:36.107Z,17.75
2023-03-06T06:04:37.747Z,19.27
2023-03-06T06:05:39.993Z,18.50
2023-03-06T06:06:41.579Z,18.13
2023-03-06T06:07:43.168Z,16.92
2023-03-06T06:08:44.912Z,18.42
2023-03-06T06:09:46.588Z,18.95
2023-03-06T06:10:48.177Z,17.48
2023-03-06T06:12:03.724Z,17.63
2023-03-06T06:13:05.712Z,17.83
2023-03-06T06:14:07.307Z,19.95
2023-03-06T06:15:09.515Z,19.85
2023-03-06T06:16:13.535Z,17.63
2023-03-06T06:17:16.633Z,17.02
2023-03-06T06:18:18.503Z,18.17
2023-03-06T06:19:20.849Z,16.52
2023-03-06T06:20:22.867Z,18.05
2023-03-06T06:21:24.572Z,17.58
2023-03-06T06:22:26.313Z,16.67
2023-03-06T06:23:27.859Z,18.58
2023-03-06T06:24:30.276Z,17.23
2023-03-06T06:25:32.715Z,16.30
2023-03-06T06:26:34.347Z,17.38
2023-03-06T06:27:35.951Z,17.20
2023-03-06T06:28:37.606Z,18.35
2023-03-06T06:29:39.182Z,18.48
2023-03-06T06:30:40.750Z,17.75
2023-03-06T06:31:42.433Z,16.30
2023-03-06T06:32:44.096Z,19.98
2023-03-06T06:33:45.722Z,16.85
2023-03-06T06:34:47.412Z,17.75
2023-03-06T06:35:49.135Z,17.33
2023-03-06T06:36:53.379Z,17.13
2023-03-06T06:37:55.376Z,18.83
2023-03-06T06:38:57.164Z,18.45
2023-03-06T06:39:58.798Z,17.30
2023-03-06T06:41:35.616Z,18.35
2023-03-06T06:42:39.044Z,16.52
2023-03-06T06:43:41.352Z,15.98
2023-03-06T06:44:42.978Z,14.63
2023-03-06T06:45:44.627Z,17.20
2023-03-06T06:48:08.695Z,14.98
2023-03-06T06:49:10.284Z,17.08
2023-03-06T06:50:13.727Z,16.73
2023-03-06T06:51:16.187Z,17.63
2023-03-06T06:52:19.010Z,15.48
2023-03-06T06:54:22.456Z,15.05
2023-03-06T06:55:24.006Z,15.40
2023-03-06T06:56:25.930Z,16.85
2023-03-06T06:57:27.600Z,17.58
2023-03-06T06:58:29.206Z,17.65
2023-03-06T06:59:30.838Z,17.45
2023-03-06T07:00:32.397Z,17.63
2023-03-06T07:01:34.034Z,18.55
2023-03-06T07:02:35.644Z,19.73
2023-03-06T07:03:37.551Z,16.95
2023-03-06T07:04:49.341Z,15.63
2023-03-06T07:05:58.024Z,18.25
2023-03-06T07:07:00.054Z,16.13
2023-03-06T07:08:01.660Z,18.20
2023-03-06T07:09:05.195Z,15.73
2023-03-06T07:10:12.107Z,15.60
2023-03-06T07:11:17.559Z,18.92
2023-03-06T07:12:19.216Z,16.30
2023-03-06T07:13:20.835Z,15.43
2023-03-06T07:14:22.432Z,16.77
2023-03-06T07:15:26.934Z,17.38
2023-03-06T07:16:28.607Z,17.65
2023-03-06T07:17:30.293Z,14.85
2023-03-06T07:18:31.918Z,16.67
2023-03-06T07:19:33.495Z,17.60
2023-03-06T07:20:35.270Z,16.88
2023-03-06T07:21:36.864Z,14.73
2023-03-06T07:22:50.495Z,16.85
2023-03-06T07:23:54.339Z,15.85
2023-03-06T07:24:55.969Z,16.60
2023-03-06T07:25:57.852Z,16.30
2023-03-06T07:26:59.431Z,16.85
2023-03-06T07:28:01.082Z,16.42
2023-03-06T07:29:04.452Z,17.63
2023-03-06T07:30:06.950Z,16.00
2023-03-06T07:31:10.286Z,17.75
2023-03-06T07:32:12.139Z,14.90
2023-03-06T07:33:14.838Z,14.98
2023-03-06T07:34:16.467Z,16.85
2023-03-06T07:35:20.425Z,16.33
2023-03-06T07:36:23.791Z,16.73
2023-03-06T07:38:26.841Z,13.77
2023-03-06T07:39:30.177Z,15.27
2023-03-06T07:40:31.912Z,15.45
2023-03-06T07:41:33.921Z,15.60
2023-03-06T07:42:36.075Z,15.68
2023-03-06T07:43:37.702Z,14.90
2023-03-06T07:44:39.374Z,14.40
2023-03-06T07:45:40.976Z,15.32
2023-03-06T07:46:42.622Z,14.70
2023-03-06T07:47:44.285Z,14.90
2023-03-06T07:48:45.930Z,16.08
2023-03-06T07:49:47.524Z,16.95
2023-03-06T07:51:00.884Z,15.48
2023-03-06T07:52:02.449Z,16.98
2023-03-06T07:53:04.114Z,15.40
2023-03-06T07:54:05.868Z,15.23
2023-03-06T07:55:08.608Z,15.63
2023-03-06T07:56:11.904Z,15.25
2023-03-06T07:57:13.678Z,15.35
2023-03-06T07:58:15.271Z,14.40
2023-03-06T07:59:16.889Z,15.50
2023-03-06T08:00:18.985Z,15.80
2023-03-06T08:01:23.588Z,14.57
2023-03-06T08:02:25.219Z,16.80
2023-03-06T08:03:26.906Z,15.23
2023-03-06T08:04:30.074Z,15.48
2023-03-06T08:05:31.868Z,15.48
2023-03-06T08:06:33.726Z,14.75
2023-03-06T08:07:35.850Z,13.73
2023-03-06T08:08:42.159Z,13.27
2023-03-06T08:09:43.752Z,13.15
2023-03-06T08:10:49.154Z,13.77
2023-03-06T08:11:50.804Z,14.25
2023-03-06T08:12:52.408Z,14.57
2023-03-06T08:13:55.214Z,13.15
2023-03-06T08:14:56.849Z,12.27
2023-03-06T08:15:59.928Z,11.85
2023-03-06T08:17:01.629Z,12.55
2023-03-06T08:18:03.336Z,12.40
2023-03-06T08:19:05.349Z,11.02
2023-03-06T08:20:08.138Z,11.18
2023-03-06T08:21:21.642Z,12.63
2023-03-06T08:22:23.891Z,10.82
2023-03-06T08:23:25.486Z,11.18
2023-03-06T08:24:27.150Z,11.75
2023-03-06T08:25:29.591Z,12.48
2023-03-06T08:26:32.155Z,11.05
2023-03-06T08:27:35.039Z,9.82
2023-03-06T08:29:38.196Z,9.35
2023-03-06T08:30:39.910Z,10.63
2023-03-06T08:31:43.824Z,11.07
2023-03-06T08:32:45.464Z,11.18
2023-03-06T08:33:47.163Z,10.85
2023-03-06T08:34:48.765Z,11.10
2023-03-06T08:35:50.528Z,11.20
2023-03-06T08:36:52.204Z,10.65
2023-03-06T08:37:54.057Z,11.25
2023-03-06T08:38:55.842Z,10.25
2023-03-06T08:39:57.513Z,10.68
2023-03-06T08:40:59.123Z,9.43
2023-03-06T08:42:00.846Z,10.68
2023-03-06T08:43:02.523Z,11.02
2023-03-06T08:44:05.302Z,11.27
2023-03-06T08:45:07.636Z,9.45
2023-03-06T08:46:10.796Z,10.50
2023-03-06T08:47:12.601Z,9.57
2023-03-06T08:48:14.237Z,9.85
2023-03-06T08:49:15.832Z,9.57
2023-03-06T08:50:19.128Z,10.75
2023-03-06T08:51:21.941Z,9.63
2023-03-06T08:52:23.564Z,8.63
2023-03-06T08:53:40.276Z,9.48
2023-03-06T08:54:44.042Z,8.93
2023-03-06T08:55:46.208Z,9.13
2023-03-06T08:56:48.061Z,9.07
2023-03-06T08:57:49.648Z,9.45
2023-03-06T08:58:52.008Z,9.10
2023-03-06T08:59:53.603Z,8.27
2023-03-06T09:00:55.504Z,8.43
2023-03-06T09:01:57.257Z,8.32
2023-03-06T09:02:59.086Z,10.32
2023-03-06T09:04:03.974Z,9.15
2023-03-06T09:05:09.224Z,9.23
2023-03-06T09:06:11.801Z,8.35
2023-03-06T09:07:13.404Z,8.05
2023-03-06T09:08:15.086Z,8.45
2023-03-06T09:09:16.710Z,10.60
2023-03-06T09:10:21.212Z,7.68
2023-03-06T09:11:26.264Z,8.60
2023-03-06T09:12:30.718Z,8.80
2023-03-06T09:13:32.460Z,8.18
2023-03-06T09:14:34.055Z,8.23
2023-03-06T09:15:36.280Z,7.50
2023-03-06T09:16:37.991Z,8.50
2023-03-06T09:17:40.149Z,8.45
2023-03-06T09:18:41.841Z,8.27
2023-03-06T09:19:43.467Z,8.20
2023-03-06T09:20:45.070Z,9.15
2023-03-06T09:21:46.793Z,8.40
2023-03-06T09:22:48.719Z,7.25
2023-03-06T09:23:51.277Z,7.72
2023-03-06T09:24:54.153Z,6.88
2023-03-06T09:26:58.372Z,9.38
2023-03-06T09:28:10.824Z,8.20
2023-03-06T09:29:12.922Z,8.20
2023-03-06T09:30:15.567Z,7.57
2023-03-06T09:31:20.121Z,7.32
2023-03-06T09:32:22.888Z,7.60
2023-03-06T09:33:24.686Z,7.50
2023-03-06T09:34:27.803Z,7.82
2023-03-06T09:35:29.465Z,6.53
2023-03-06T09:36:31.203Z,7.68
2023-03-06T09:37:32.814Z,6.28
2023-03-06T09:38:35.009Z,6.32
2023-03-06T09:39:36.619Z,6.65
2023-03-06T09:41:03.680Z,7.20
2023-03-06T09:42:12.282Z,6.93
2023-03-06T09:43:21.593Z,7.50
2023-03-06T09:44:27.728Z,8.10
2023-03-06T09:45:30.166Z,7.05
2023-03-06T09:46:56.872Z,7.13
2023-03-06T09:48:04.779Z,6.15
2023-03-06T09:49:31.538Z,7.15
2023-03-06T09:50:40.834Z,7.78
2023-03-06T09:52:08.133Z,6.57
2023-03-06T09:53:26.445Z,6.72
2023-03-06T09:54:46.174Z,6.57
2023-03-06T09:55:59.255Z,7.88
2023-03-06T09:57:00.897Z,7.50
2023-03-06T09:58:21.429Z,8.10
2023-03-06T09:59:25.265Z,7.18
2023-03-06T10:00:33.856Z,6.90
2023-03-06T10:01:40.608Z,6.70
2023-03-06T10:02:47.205Z,7.32
2023-03-06T10:03:58.025Z,7.97
2023-03-06T10:05:04.148Z,6.25
2023-03-06T10:06:15.870Z,7.35
2023-03-06T10:07:31.901Z,6.03
2023-03-06T10:09:09.748Z,6.93
2023-03-06T10:10:24.115Z,7.13
2023-03-06T10:11:34.694Z,6.90
2023-03-06T10:12:41.237Z,7.22
2023-03-06T10:13:51.684Z,7.32
2023-03-06T10:15:18.442Z,6.65
2023-03-06T10:16:30.330Z,6.43
2023-03-06T10:17:37.310Z,7.07
2023-03-06T10:18:39.507Z,7.05
2023-03-06T10:19:42.455Z,6.70
2023-03-06T10:20:59.469Z,7.32
2023-03-06T10:22:29.301Z,6.65
2023-03-06T10:24:13.820Z,9.25
2023-03-06T10:25:45.620Z,18.50
2023-03-06T10:26:58.678Z,11.20
2023-03-06T10:28:13.756Z,7.15
2023-03-06T10:31:34.878Z,7.50
2023-03-06T10:32:51.697Z,8.23
2023-03-06T10:33:59.472Z,7.20
2023-03-06T10:35:02.487Z,7.28
2023-03-06T10:36:04.815Z,6.03
2023-03-06T10:37:18.360Z,6.68
2023-03-06T10:38:37.527Z,6.65
2023-03-06T10:39:39.712Z,7.25
2023-03-06T10:40:54.423Z,6.25
2023-03-06T10:41:56.131Z,6.70
2023-03-06T10:43:10.886Z,7.05
2023-03-06T10:44:13.179Z,7.53
2023-03-06T10:45:16.913Z,7.97
2023-03-06T10:46:28.784Z,8.63
2023-03-06T10:47:36.924Z,7.70
2023-03-06T10:48:41.962Z,7.20
2023-03-06T10:49:57.641Z,7.60
2023-03-06T10:51:20.126Z,8.40
2023-03-06T10:52:23.053Z,8.00
2023-03-06T10:53:29.214Z,7.15
2023-03-06T10:54:34.659Z,7.20
2023-03-06T10:55:38.038Z,7.85
2023-03-06T10:56:44.984Z,7.97
2023-03-06T10:57:46.528Z,9.52
2023-03-06T10:58:48.106Z,7.45
2023-03-06T10:59:52.614Z,8.10
2023-03-06T11:01:20.469Z,7.63
2023-03-06T11:02:24.721Z,8.38
2023-03-06T11:03:26.322Z,8.00
2023-03-06T11:04:33.683Z,8.30
2023-03-06T11:05:35.319Z,8.45
2023-03-06T11:06:36.964Z,7.82
2023-03-06T11:07:54.258Z,8.13
2023-03-06T11:09:19.107Z,7.43
2023-03-06T11:10:20.824Z,7.18
2023-03-06T11:11:36.815Z,7.88
2023-03-06T11:12:41.315Z,8.07
2023-03-06T11:13:44.675Z,8.20
2023-03-06T11:14:46.437Z,8.32
2023-03-06T11:16:06.576Z,7.90
2023-03-06T11:17:26.990Z,8.30
2023-03-06T11:18:50.959Z,7.97
2023-03-06T11:20:16.526Z,8.20
2023-03-06T11:21:58.481Z,9.77
2023-03-06T11:23:04.709Z,8.07
2023-03-06T11:24:14.991Z,7.55
2023-03-06T11:25:20.818Z,6.80
2023-03-06T11:26:34.499Z,8.27
2023-03-06T11:27:42.605Z,7.97
2023-03-06T11:28:52.422Z,8.50
2023-03-06T11:29:55.441Z,8.77
2023-03-06T11:31:09.411Z,8.10
2023-03-06T11:32:21.604Z,9.23
2023-03-06T11:33:42.752Z,8.65
2023-03-06T11:36:27.010Z,8.38
2023-03-06T11:37:54.105Z,8.25
2023-03-06T11:38:56.195Z,8.65
2023-03-06T11:40:25.496Z,9.55
2023-03-06T11:41:39.229Z,10.10
2023-03-06T11:42:47.596Z,8.52
2023-03-06T11:44:26.608Z,9.13
2023-03-06T11:45:37.265Z,9.82
2023-03-06T11:46:44.099Z,9.50
2023-03-06T11:47:55.397Z,8.98
2023-03-06T11:49:21.438Z,11.88
2023-03-06T11:50:27.812Z,10.98
2023-03-06T11:51:35.448Z,10.73
2023-03-06T11:52:44.423Z,9.23
2023-03-06T11:54:55.408Z,8.57
2023-03-06T11:56:18.723Z,9.07
2023-03-06T11:57:31.714Z,8.40
2023-03-06T11:59:01.006Z,9.00
2023-03-06T12:00:02.567Z,8.65
2023-03-06T12:01:18.051Z,8.93
2023-03-06T12:02:23.914Z,9.93
2023-03-06T12:03:31.767Z,10.02
2023-03-06T12:05:08.154Z,10.18
2023-03-06T12:06:15.840Z,10.20
2023-03-06T12:07:47.878Z,9.80
2023-03-06T12:09:05.051Z,7.88
2023-03-06T12:10:23.681Z,8.65
2023-03-06T12:12:07.078Z,8.40
2023-03-06T12:13:54.293Z,9.38
2023-03-06T12:15:17.133Z,9.15
2023-03-06T12:16:24.616Z,8.90
2023-03-06T12:17:35.312Z,9.23
2023-03-06T12:19:07.735Z,9.43
2023-03-06T12:20:24.670Z,10.15
2023-03-06T12:21:26.202Z,7.68
2023-03-06T12:22:36.712Z,8.48
2023-03-06T12:23:53.310Z,9.05
2023-03-06T12:24:57.922Z,8.68
2023-03-06T12:26:18.590Z,9.48
2023-03-06T12:27:28.326Z,11.23
2023-03-06T12:28:46.401Z,9.88
2023-03-06T12:30:29.733Z,8.77
2023-03-06T12:32:02.052Z,9.13
2023-03-06T12:33:18.614Z,8.27
2023-03-06T12:34:23.135Z,9.52
2023-03-06T12:35:49.321Z,8.40
2023-03-06T12:37:21.274Z,9.90
2023-03-06T12:38:28.884Z,9.45
2023-03-06T12:39:36.487Z,10.65
2023-03-06T12:40:55.990Z,9.55
2023-03-06T12:42:22.973Z,9.43
2023-03-06T12:43:47.449Z,10.85
2023-03-06T12:44:56.032Z,10.55
2023-03-06T12:46:14.268Z,9.50
2023-03-06T12:47:20.795Z,9.48
2023-03-06T12:48:25.857Z,9.85
2023-03-06T12:49:34.627Z,8.65
2023-03-06T12:50:37.209Z,8.48
2023-03-06T12:51:40.118Z,11.15
2023-03-06T12:52:42.222Z,9.70
2023-03-06T12:53:45.363Z,12.02
2023-03-06T12:54:47.408Z,10.00
2023-03-06T12:55:49.909Z,9.55
2023-03-06T12:56:54.390Z,9.13
2023-03-06T12:57:56.034Z,10.35
2023-03-06T12:59:02.459Z,11.65
2023-03-06T13:00:04.548Z,9.15
2023-03-06T13:01:43.489Z,10.50
2023-03-06T13:03:00.125Z,8.85
2023-03-06T13:04:07.400Z,11.02
2023-03-06T13:05:29.415Z,8.55
2023-03-06T13:07:07.190Z,8.45
2023-03-06T13:08:38.151Z,9.30
2023-03-06T13:10:03.814Z,9.80
2023-03-06T13:11:33.056Z,8.60
2023-03-06T13:12:50.083Z,8.88
2023-03-06T13:13:51.677Z,7.75
2023-03-06T13:15:06.858Z,9.57
2023-03-06T13:16:13.595Z,9.52
2023-03-06T13:17:24.342Z,9.50
2023-03-06T13:18:25.882Z,10.55
2023-03-06T13:19:27.498Z,9.80
2023-03-06T13:20:44.085Z,9.23
2023-03-06T13:21:54.474Z,9.27
2023-03-06T13:22:56.783Z,9.70
2023-03-06T13:24:05.748Z,9.77
2023-03-06T13:26:29.033Z,8.20
2023-03-06T13:27:56.456Z,8.65
2023-03-06T13:28:58.520Z,8.70
2023-03-06T13:30:37.118Z,8.55
2023-03-06T13:31:40.131Z,8.55
2023-03-06T13:32:41.799Z,8.15
2023-03-06T13:33:43.475Z,8.07
2023-03-06T13:34:47.193Z,8.90
2023-03-06T13:35:52.705Z,9.52
2023-03-06T13:37:17.221Z,9.27
2023-03-06T13:38:33.796Z,9.57
2023-03-06T13:39:55.510Z,9.75
2023-03-06T13:41:22.066Z,8.93
2023-03-06T13:42:31.240Z,8.32
2023-03-06T13:43:41.434Z,9.73
2023-03-06T13:44:44.603Z,9.57
2023-03-06T13:45:47.901Z,10.55
2023-03-06T13:46:59.139Z,9.18
2023-03-06T13:48:37.580Z,9.35
2023-03-06T13:49:24.821Z,8.15
2023-03-06T13:50:32.482Z,9.65
2023-03-06T13:51:38.893Z,9.75
2023-03-06T13:52:56.218Z,9.02
2023-03-06T13:54:00.711Z,9.93
2023-03-06T13:55:14.520Z,9.63
2023-03-06T13:56:50.223Z,10.23
2023-03-06T13:58:10.589Z,10.20
2023-03-06T13:59:24.286Z,9.50
2023-03-06T14:00:51.136Z,9.57
2023-03-06T14:02:29.874Z,9.35
2023-03-06T14:03:47.961Z,9.15
2023-03-06T14:05:01.093Z,10.32
2023-03-06T14:06:34.558Z,8.93
2023-03-06T14:08:46.698Z,8.27
2023-03-06T14:09:59.669Z,9.73
2023-03-06T14:11:17.227Z,10.77
2023-03-06T14:12:26.858Z,9.25
2023-03-06T14:13:47.863Z,10.43
2023-03-06T14:14:58.956Z,10.15
2023-03-06T14:16:00.657Z,9.20
2023-03-06T14:17:05.130Z,9.88
2023-03-06T14:18:15.875Z,9.77
2023-03-06T14:19:19.263Z,9.65
2023-03-06T14:20:22.129Z,8.90
2023-03-06T14:22:39.845Z,8.98
2023-03-06T14:23:45.977Z,9.50
2023-03-06T14:25:00.908Z,10.27
2023-03-06T14:26:20.068Z,9.82
2023-03-06T14:27:38.228Z,10.80
2023-03-06T14:28:39.817Z,9.38
2023-03-06T14:29:41.386Z,10.90
2023-03-06T14:30:50.768Z,10.95
2023-03-06T14:31:54.826Z,9.38
2023-03-06T14:32:56.480Z,10.07
2023-03-06T14:34:06.107Z,12.70